createdAt,value
2022-11-26T00:02:23.218Z,8.47
2022-11-26T00:04:53.491Z,8.44
2022-11-26T00:07:25.959Z,8.38
2022-11-26T00:09:54.321Z,8.37
2022-11-26T00:12:24.372Z,8.32
2022-11-26T00:14:52.071Z,8.32
2022-11-26T00:17:20.377Z,8.36
2022-11-26T00:19:49.813Z,8.34
2022-11-26T00:22:25.291Z,8.32
2022-11-26T00:24:54.318Z,8.33
2022-11-26T00:27:22.995Z,8.36
2022-11-26T00:29:50.785Z,8.36
2022-11-26T00:32:20.827Z,8.37
2022-11-26T00:34:48.785Z,8.36
2022-11-26T00:37:24.252Z,8.32
2022-11-26T00:39:52.967Z,8.26
2022-11-26T00:42:20.936Z,8.29
2022-11-26T00:44:48.679Z,8.33
2022-11-26T00:47:16.556Z,8.32
2022-11-26T00:49:44.272Z,8.30
2022-11-26T00:52:25.835Z,8.30
2022-11-26T00:54:53.667Z,8.27
2022-11-26T00:57:21.486Z,8.32
2022-11-26T00:59:49.379Z,8.32
2022-11-26T01:02:17.245Z,8.34
2022-11-26T01:04:44.968Z,8.35
2022-11-26T01:07:12.696Z,8.33
2022-11-26T01:09:45.174Z,8.30
2022-11-26T01:12:14.737Z,8.29
2022-11-26T01:14:42.742Z,8.24
2022-11-26T01:17:12.523Z,8.24
2022-11-26T01:19:40.218Z,8.24
2022-11-26T01:22:19.756Z,8.24
2022-11-26T01:24:49.007Z,8.26
2022-11-26T01:27:16.729Z,8.28
2022-11-26T01:29:44.415Z,8.22
2022-11-26T01:32:12.801Z,8.15
2022-11-26T01:34:40.698Z,8.20
2022-11-26T01:37:14.004Z,8.23
2022-11-26T01:39:41.735Z,8.19
2022-11-26T01:42:23.798Z,8.14
2022-11-26T01:44:51.583Z,8.16
2022-11-26T01:47:22.353Z,8.11
2022-11-26T01:50:27.459Z,8.12
2022-11-26T01:52:56.556Z,8.12
2022-11-26T01:55:24.698Z,8.15
2022-11-26T01:57:54.102Z,8.16
2022-11-26T02:00:21.933Z,8.14
2022-11-26T02:02:50.158Z,8.13
2022-11-26T02:05:22.066Z,8.12
2022-11-26T02:07:51.607Z,8.08
2022-11-26T02:10:19.973Z,8.11
2022-11-26T02:12:48.472Z,8.13
2022-11-26T02:15:17.721Z,8.11
2022-11-26T02:17:49.116Z,8.09
2022-11-26T02:20:49.432Z,8.04
2022-11-26T02:24:02.588Z,8.04
2022-11-26T02:26:58.872Z,7.98
2022-11-26T02:29:32.009Z,7.99
2022-11-26T02:32:09.446Z,7.99
2022-11-26T02:34:45.564Z,7.94
2022-11-26T02:37:20.217Z,7.93
2022-11-26T02:39:48.383Z,7.93
2022-11-26T02:42:27.658Z,7.91
2022-11-26T02:44:57.883Z,7.92
2022-11-26T02:47:29.376Z,7.92
2022-11-26T02:50:00.631Z,7.94
2022-11-26T02:52:29.042Z,7.97
2022-11-26T02:54:58.091Z,7.98
2022-11-26T02:57:30.120Z,7.98
2022-11-26T02:59:58.340Z,7.95
2022-11-26T03:02:32.638Z,7.88
2022-11-26T03:05:03.482Z,7.82
2022-11-26T03:07:33.679Z,7.80
2022-11-26T03:10:02.629Z,7.78
2022-11-26T03:12:30.799Z,7.73
2022-11-26T03:14:58.886Z,7.75
2022-11-26T03:17:27.893Z,7.76
2022-11-26T03:19:55.861Z,7.75
2022-11-26T03:22:23.595Z,7.74
2022-11-26T03:24:51.397Z,7.78
2022-11-26T03:27:19.089Z,7.74
2022-11-26T03:29:47.072Z,7.76
2022-11-26T03:32:14.713Z,7.77
2022-11-26T03:34:43.902Z,7.75
2022-11-26T03:37:11.641Z,7.77
2022-11-26T03:39:39.412Z,7.77
2022-11-26T03:42:07.193Z,7.75
2022-11-26T03:44:35.036Z,7.79
2022-11-26T03:47:03.259Z,7.78
2022-11-26T03:49:31.070Z,7.75
2022-11-26T03:52:00.138Z,7.72
2022-11-26T03:54:28.137Z,7.75
2022-11-26T03:56:55.818Z,7.73
2022-11-26T03:59:23.581Z,7.72
2022-11-26T04:01:51.409Z,7.74
2022-11-26T04:04:19.228Z,7.73
2022-11-26T04:06:47.022Z,7.71
2022-11-26T04:09:16.130Z,7.69
2022-11-26T04:11:43.955Z,7.67
2022-11-26T04:14:11.620Z,7.65
2022-11-26T04:16:39.347Z,7.63
2022-11-26T04:19:07.226Z,7.64
2022-11-26T04:21:35.022Z,7.61
2022-11-26T04:24:02.922Z,7.60
2022-11-26T04:26:32.057Z,7.64
2022-11-26T04:29:00.050Z,7.63
2022-11-26T04:31:27.770Z,7.66
2022-11-26T04:33:55.513Z,7.66
2022-11-26T04:36:23.218Z,7.66
2022-11-26T04:38:51.034Z,7.68
2022-11-26T04:41:18.692Z,7.66
2022-11-26T04:43:47.759Z,7.62
2022-11-26T04:46:15.611Z,7.62
2022-11-26T04:48:43.404Z,7.58
2022-11-26T04:51:11.168Z,7.53
2022-11-26T04:53:38.938Z,7.46
2022-11-26T04:56:07.031Z,7.47
2022-11-26T04:58:34.803Z,7.46
2022-11-26T05:01:03.936Z,7.45
2022-11-26T05:03:31.992Z,7.43
2022-11-26T05:05:59.672Z,7.43
2022-11-26T05:08:27.336Z,7.43
2022-11-26T05:13:40.813Z,7.40
2022-11-26T05:16:10.195Z,7.39
2022-11-26T05:18:37.939Z,7.37
2022-11-26T05:21:06.019Z,7.39
2022-11-26T05:23:33.826Z,7.38
2022-11-26T05:26:01.613Z,7.37
2022-11-26T05:28:29.299Z,7.38
2022-11-26T05:31:00.001Z,7.34
2022-11-26T05:33:29.887Z,7.30
2022-11-26T05:35:57.685Z,7.31
2022-11-26T05:38:25.371Z,7.32
2022-11-26T05:40:53.031Z,7.34
2022-11-26T05:43:20.914Z,7.30
2022-11-26T05:45:48.717Z,7.29
2022-11-26T05:48:16.436Z,7.29
2022-11-26T05:50:47.969Z,7.28
2022-11-26T05:53:19.258Z,7.21
2022-11-26T05:55:46.969Z,7.17
2022-11-26T05:58:14.654Z,7.14
2022-11-26T06:00:42.402Z,7.16
2022-11-26T06:03:10.294Z,7.15
2022-11-26T06:08:24.860Z,7.15
2022-11-26T06:10:52.521Z,7.13
2022-11-26T06:13:20.196Z,7.11
2022-11-26T06:15:47.843Z,7.10
2022-11-26T06:18:15.616Z,7.12
2022-11-26T06:20:43.364Z,7.11
2022-11-26T06:23:11.671Z,7.11
2022-11-26T06:25:42.472Z,7.09
2022-11-26T06:28:10.255Z,7.06
2022-11-26T06:30:38.091Z,7.09
2022-11-26T06:33:05.959Z,7.08
2022-11-26T06:35:33.671Z,7.08
2022-11-26T06:38:01.385Z,7.05
2022-11-26T06:40:29.150Z,7.06
2022-11-26T06:42:58.237Z,7.02
2022-11-26T06:45:26.176Z,6.99
2022-11-26T06:47:53.919Z,7.03
2022-11-26T06:50:25.737Z,7.00
2022-11-26T06:52:54.089Z,6.97
2022-11-26T06:55:22.337Z,6.90
2022-11-26T06:57:51.614Z,6.90
2022-11-26T07:00:22.011Z,6.89
2022-11-26T07:02:49.807Z,6.90
2022-11-26T07:05:17.843Z,6.94
2022-11-26T07:07:45.672Z,6.94
2022-11-26T07:10:13.490Z,6.93
2022-11-26T07:12:41.238Z,6.94
2022-11-26T07:15:10.281Z,6.95
2022-11-26T07:17:39.307Z,6.93
2022-11-26T07:20:08.329Z,6.91
2022-11-26T07:22:36.527Z,6.94
2022-11-26T07:25:09.355Z,6.96
2022-11-26T07:27:39.916Z,6.98
2022-11-26T07:30:08.808Z,6.95
2022-11-26T07:32:36.541Z,6.98
2022-11-26T07:35:06.279Z,6.95
2022-11-26T07:37:34.111Z,6.89
2022-11-26T07:40:01.954Z,6.88
2022-11-26T07:42:31.800Z,6.87
2022-11-26T07:44:59.796Z,6.89
2022-11-26T07:47:27.671Z,6.91
2022-11-26T07:49:55.399Z,6.94
2022-11-26T07:52:24.497Z,6.99
2022-11-26T07:54:52.201Z,6.98
2022-11-26T07:57:22.128Z,6.97
2022-11-26T07:59:49.889Z,7.03
2022-11-26T08:02:18.045Z,7.09
2022-11-26T08:04:46.005Z,7.13
2022-11-26T08:07:23.031Z,7.18
2022-11-26T08:09:53.586Z,7.22
2022-11-26T08:12:21.295Z,7.23
2022-11-26T08:14:49.054Z,7.25
2022-11-26T08:17:16.855Z,7.25
2022-11-26T08:19:44.804Z,7.29
2022-11-26T08:22:12.834Z,7.34
2022-11-26T08:24:40.786Z,7.43
2022-11-26T08:29:55.640Z,7.51
2022-11-26T08:32:23.403Z,7.50
2022-11-26T08:34:51.131Z,7.52
2022-11-26T08:37:18.816Z,7.54
2022-11-26T08:39:46.844Z,7.55
2022-11-26T08:42:15.946Z,7.57
2022-11-26T08:44:43.695Z,7.60
2022-11-26T08:47:11.407Z,7.62
2022-11-26T08:49:39.213Z,7.65
2022-11-26T08:52:06.998Z,7.67
2022-11-26T08:54:34.692Z,7.71
2022-11-26T08:57:02.494Z,7.77
2022-11-26T08:59:31.463Z,7.83
2022-11-26T09:02:00.304Z,7.87
2022-11-26T09:04:28.044Z,7.94
2022-11-26T09:06:55.711Z,7.98
2022-11-26T09:09:23.438Z,8.01
2022-11-26T09:11:54.121Z,8.07
2022-11-26T09:14:24.843Z,8.12
2022-11-26T09:16:55.296Z,8.17
2022-11-26T09:19:23.811Z,8.21
2022-11-26T09:21:51.627Z,8.22
2022-11-26T09:24:20.061Z,8.24
2022-11-26T09:26:48.857Z,8.27
2022-11-26T09:29:18.072Z,8.27
2022-11-26T09:32:15.397Z,8.24
2022-11-26T09:34:36.025Z,8.25
2022-11-26T09:37:04.096Z,8.26
2022-11-26T09:39:31.896Z,8.25
2022-11-26T09:42:06.195Z,8.27
2022-11-26T09:44:51.319Z,8.32
2022-11-26T09:47:22.307Z,8.33
2022-11-26T09:49:59.413Z,8.37
2022-11-26T09:52:31.296Z,8.43
2022-11-26T09:55:06.445Z,8.43
2022-11-26T09:57:40.677Z,8.47
2022-11-26T10:00:22.644Z,8.49
2022-11-26T10:02:53.584Z,8.60
2022-11-26T10:05:24.751Z,8.66
2022-11-26T10:08:03.497Z,8.66
2022-11-26T10:10:38.558Z,8.73
2022-11-26T10:13:19.919Z,8.76
2022-11-26T10:15:59.066Z,8.77
2022-11-26T10:18:37.394Z,8.82
2022-11-26T10:21:27.221Z,8.86
2022-11-26T10:24:04.974Z,8.77
2022-11-26T10:26:36.898Z,8.82
2022-11-26T10:29:23.906Z,8.81
2022-11-26T10:31:57.456Z,8.81
2022-11-26T10:34:35.899Z,8.79
2022-11-26T10:37:08.146Z,8.81
2022-11-26T10:39:36.119Z,8.80
2022-11-26T10:42:10.336Z,8.89
2022-11-26T10:44:41.686Z,8.98
2022-11-26T10:47:36.445Z,9.01
2022-11-26T10:50:46.561Z,8.99
2022-11-26T10:53:22.134Z,9.05
2022-11-26T10:55:51.388Z,9.02
2022-11-26T10:58:22.908Z,9.04
2022-11-26T11:00:57.809Z,9.13
2022-11-26T11:03:59.714Z,9.11
2022-11-26T11:06:28.902Z,9.06
2022-11-26T11:08:58.042Z,9.09
2022-11-26T11:11:27.875Z,9.16
2022-11-26T11:13:55.905Z,9.18
2022-11-26T11:16:28.476Z,9.16
2022-11-26T11:18:58.423Z,9.19
2022-11-26T11:21:31.032Z,9.23
2022-11-26T11:24:17.430Z,9.30
2022-11-26T11:26:47.604Z,9.31
2022-11-26T11:29:26.423Z,9.32
2022-11-26T11:31:55.486Z,9.31
2022-11-26T11:34:27.815Z,9.29
2022-11-26T11:37:03.827Z,9.32
2022-11-26T11:39:35.733Z,9.33
2022-11-26T11:42:07.460Z,9.32
2022-11-26T11:44:40.302Z,9.38
2022-11-26T11:47:37.202Z,9.37
2022-11-26T11:50:19.668Z,9.33
2022-11-26T11:53:26.302Z,9.39
2022-11-26T11:56:11.813Z,9.48
2022-11-26T11:59:03.943Z,9.58
2022-11-26T12:01:46.723Z,9.63
2022-11-26T12:04:26.504Z,9.76
2022-11-26T12:07:26.605Z,9.83
2022-11-26T12:12:52.838Z,10.04
2022-11-26T12:15:27.548Z,10.11
2022-11-26T12:18:00.727Z,10.23
2022-11-26T12:20:33.386Z,10.31
2022-11-26T12:23:24.771Z,10.42
2022-11-26T12:25:57.895Z,10.53
2022-11-26T12:28:32.186Z,10.57
2022-11-26T12:31:04.252Z,10.62
2022-11-26T12:33:35.945Z,10.67
2022-11-26T12:36:15.648Z,10.72
2022-11-26T12:38:48.671Z,10.78
2022-11-26T12:41:20.980Z,10.89
2022-11-26T12:43:58.869Z,10.93
2022-11-26T12:46:33.358Z,10.91
2022-11-26T12:49:13.545Z,10.74
2022-11-26T12:51:46.605Z,10.66
2022-11-26T12:54:20.669Z,10.49
2022-11-26T12:56:57.433Z,10.39
2022-11-26T12:59:30.434Z,10.36
2022-11-26T13:01:58.468Z,10.31
2022-11-26T13:04:49.174Z,10.33
2022-11-26T13:07:38.144Z,10.27
2022-11-26T13:10:19.857Z,10.23
2022-11-26T13:12:55.387Z,10.05
2022-11-26T13:15:29.229Z,10.03
2022-11-26T13:18:00.045Z,10.04
2022-11-26T13:20:44.278Z,10.09
2022-11-26T13:23:29.385Z,10.14
2022-11-26T13:26:12.041Z,10.12
2022-11-26T13:29:09.101Z,10.10
2022-11-26T13:31:57.207Z,10.02
2022-11-26T13:34:37.063Z,9.94
2022-11-26T13:37:31.778Z,9.90
2022-11-26T13:40:30.449Z,9.87
2022-11-26T13:43:36.868Z,9.83
2022-11-26T13:46:11.342Z,9.87
2022-11-26T13:48:48.869Z,9.86
2022-11-26T13:51:25.503Z,9.88
2022-11-26T13:53:59.061Z,9.88
2022-11-26T13:56:32.132Z,9.89
2022-11-26T13:59:03.040Z,9.91
2022-11-26T14:01:37.060Z,9.82
2022-11-26T14:04:09.082Z,9.80
2022-11-26T14:06:37.809Z,9.80
2022-11-26T14:09:06.629Z,9.76
2022-11-26T14:11:58.033Z,9.73
2022-11-26T14:14:33.495Z,9.75
2022-11-26T14:17:19.442Z,9.75
2022-11-26T14:20:06.288Z,9.74
2022-11-26T14:22:36.361Z,9.72
2022-11-26T14:25:06.897Z,9.69
2022-11-26T14:27:36.399Z,9.66
2022-11-26T14:30:19.012Z,9.65
2022-11-26T14:32:54.343Z,9.67
2022-11-26T14:35:33.618Z,9.69
2022-11-26T14:38:04.010Z,9.68
2022-11-26T14:40:33.387Z,9.65
2022-11-26T14:43:08.815Z,9.58
2022-11-26T14:45:37.411Z,9.57
2022-11-26T14:48:06.304Z,9.60
2022-11-26T14:50:37.721Z,9.59
2022-11-26T14:53:07.452Z,9.59
2022-11-26T14:55:35.942Z,9.58
2022-11-26T14:58:09.662Z,9.56
2022-11-26T15:00:38.425Z,9.56
2022-11-26T15:03:23.221Z,9.56
2022-11-26T15:05:52.282Z,9.59
2022-11-26T15:08:21.212Z,9.56
2022-11-26T15:10:52.726Z,9.55
2022-11-26T15:13:26.457Z,9.56
2022-11-26T15:15:55.474Z,9.53
2022-11-26T15:18:29.647Z,9.53
2022-11-26T15:21:00.104Z,9.50
2022-11-26T15:23:31.599Z,9.49
2022-11-26T15:26:01.112Z,9.50
2022-11-26T15:28:29.166Z,9.47
2022-11-26T15:30:59.539Z,9.43
2022-11-26T15:33:28.584Z,9.43
2022-11-26T15:35:57.889Z,9.37
2022-11-26T15:38:27.581Z,9.34
2022-11-26T15:40:57.432Z,9.30
2022-11-26T15:43:29.661Z,9.27
2022-11-26T15:46:01.048Z,9.24
2022-11-26T15:48:51.140Z,9.23
2022-11-26T15:51:33.687Z,9.22
2022-11-26T15:54:03.984Z,9.20
2022-11-26T15:56:35.117Z,9.14
2022-11-26T15:59:07.797Z,9.07
2022-11-26T16:01:38.014Z,9.05
2022-11-26T16:04:06.477Z,9.04
2022-11-26T16:06:37.679Z,9.03
2022-11-26T16:09:27.737Z,9.00
2022-11-26T16:12:00.240Z,9.00
2022-11-26T16:14:34.214Z,8.95
2022-11-26T16:17:08.252Z,8.97
2022-11-26T16:19:37.760Z,8.98
2022-11-26T16:22:07.496Z,8.96
2022-11-26T16:24:38.963Z,8.93
2022-11-26T16:27:25.272Z,8.91
2022-11-26T16:29:53.143Z,8.89
2022-11-26T16:32:21.395Z,8.86
2022-11-26T16:34:49.182Z,8.83
2022-11-26T16:37:22.617Z,8.83
2022-11-26T16:39:51.554Z,8.82
2022-11-26T16:42:21.619Z,8.79
2022-11-26T16:44:50.063Z,8.79
2022-11-26T16:47:23.504Z,8.78
2022-11-26T16:49:51.610Z,8.76
2022-11-26T16:52:21.417Z,8.75
2022-11-26T16:54:49.984Z,8.72
2022-11-26T16:57:19.680Z,8.68
2022-11-26T16:59:52.357Z,8.65
2022-11-26T17:02:21.774Z,8.61
2022-11-26T17:04:50.215Z,8.58
2022-11-26T17:07:22.096Z,8.54
2022-11-26T17:09:50.065Z,8.48
2022-11-26T17:12:19.636Z,8.46
2022-11-26T17:14:48.491Z,8.48
2022-11-26T17:17:20.629Z,8.49
2022-11-26T17:19:51.886Z,8.50
2022-11-26T17:22:21.613Z,8.48
2022-11-26T17:24:49.291Z,8.51
2022-11-26T17:27:19.527Z,8.50
2022-11-26T17:29:48.053Z,8.47
2022-11-26T17:32:18.918Z,8.44
2022-11-26T17:34:47.806Z,8.38
2022-11-26T17:37:18.693Z,8.39
2022-11-26T17:39:47.659Z,8.38
2022-11-26T17:42:15.296Z,8.35
2022-11-26T17:44:42.963Z,8.29
2022-11-26T17:47:17.701Z,8.27
2022-11-26T17:49:46.521Z,8.27
2022-11-26T17:52:14.990Z,8.26
2022-11-26T17:54:42.907Z,8.26
2022-11-26T17:57:12.575Z,8.30
2022-11-26T17:59:40.963Z,8.34
2022-11-26T18:02:09.599Z,8.38
2022-11-26T18:04:37.344Z,8.43
2022-11-26T18:07:07.843Z,8.47
2022-11-26T18:09:35.997Z,8.47
2022-11-26T18:12:04.433Z,8.48
2022-11-26T18:14:35.563Z,8.45
2022-11-26T18:17:04.365Z,8.41
2022-11-26T18:19:32.083Z,8.38
2022-11-26T18:21:59.796Z,8.38
2022-11-26T18:24:27.510Z,8.40
2022-11-26T18:26:56.709Z,8.41
2022-11-26T18:29:24.726Z,8.38
2022-11-26T18:31:54.100Z,8.33
2022-11-26T18:34:22.407Z,8.33
2022-11-26T18:36:53.680Z,8.31
2022-11-26T18:39:21.979Z,8.34
2022-11-26T18:41:49.664Z,8.32
2022-11-26T18:44:17.477Z,8.35
2022-11-26T18:46:45.203Z,8.36
2022-11-26T18:49:14.201Z,8.32
2022-11-26T18:51:41.869Z,8.34
2022-11-26T18:54:10.144Z,8.34
2022-11-26T18:56:37.783Z,8.35
2022-11-26T18:59:05.506Z,8.31
2022-11-26T19:01:33.300Z,8.32
2022-11-26T19:04:01.095Z,8.31
2022-11-26T19:06:32.566Z,8.31
2022-11-26T19:09:02.311Z,8.32
2022-11-26T19:11:30.060Z,8.29
2022-11-26T19:13:58.996Z,8.31
2022-11-26T19:16:28.505Z,8.30
2022-11-26T19:18:56.210Z,8.31
2022-11-26T19:21:27.263Z,8.29
2022-11-26T19:23:58.434Z,8.27
2022-11-26T19:26:26.217Z,8.28
2022-11-26T19:28:54.319Z,8.26
2022-11-26T19:31:24.404Z,8.24
2022-11-26T19:33:54.540Z,8.20
2022-11-26T19:36:23.112Z,8.17
2022-11-26T19:38:56.932Z,8.16
2022-11-26T19:41:25.933Z,8.16
2022-11-26T19:43:54.802Z,8.12
2022-11-26T19:46:24.821Z,8.06
2022-11-26T19:48:54.307Z,8.04
2022-11-26T19:51:23.932Z,8.01
2022-11-26T19:53:53.026Z,8.03
2022-11-26T19:56:24.254Z,8.01
2022-11-26T19:58:53.906Z,8.02
2022-11-26T20:01:23.077Z,8.01
2022-11-26T20:03:52.434Z,8.00
2022-11-26T20:06:22.170Z,7.98
2022-11-26T20:08:50.761Z,7.98
2022-11-26T20:11:19.683Z,7.96
2022-11-26T20:13:50.452Z,7.91
2022-11-26T20:16:20.795Z,7.87
2022-11-26T20:18:49.766Z,7.88
2022-11-26T20:21:20.872Z,7.88
2022-11-26T20:23:50.470Z,7.78
2022-11-26T20:26:21.726Z,7.81
2022-11-26T20:28:52.166Z,7.84
2022-11-26T20:31:24.059Z,7.84
2022-11-26T20:33:53.217Z,7.88
2022-11-26T20:36:22.999Z,7.86
2022-11-26T20:38:53.557Z,7.75
2022-11-26T20:41:22.087Z,7.73
2022-11-26T20:43:57.943Z,7.69
2022-11-26T20:46:26.627Z,7.72
2022-11-26T20:48:54.623Z,7.71
2022-11-26T20:51:23.119Z,7.69
2022-11-26T20:53:52.936Z,7.66
2022-11-26T20:56:22.712Z,7.64
2022-11-26T20:58:53.095Z,7.65
2022-11-26T21:01:24.260Z,7.59
2022-11-26T21:03:53.547Z,7.58
2022-11-26T21:06:29.867Z,7.53
2022-11-26T21:09:00.809Z,7.50
2022-11-26T21:11:29.458Z,7.53
2022-11-26T21:14:01.674Z,7.47
2022-11-26T21:16:30.772Z,7.48
2022-11-26T21:18:59.035Z,7.48
2022-11-26T21:21:29.455Z,7.49
2022-11-26T21:23:58.553Z,7.44
2022-11-26T21:26:27.387Z,7.38
2022-11-26T21:28:57.119Z,7.38
2022-11-26T21:31:28.122Z,7.42
2022-11-26T21:33:57.970Z,7.45
2022-11-26T21:36:26.716Z,7.41
2022-11-26T21:38:55.371Z,7.31
2022-11-26T21:41:24.549Z,7.38
2022-11-26T21:43:53.157Z,7.35
2022-11-26T21:46:23.165Z,7.39
2022-11-26T21:48:55.044Z,7.39
2022-11-26T21:51:23.995Z,7.43
2022-11-26T21:53:53.940Z,7.43
2022-11-26T21:56:24.235Z,7.38
2022-11-26T21:58:53.280Z,7.31
2022-11-26T22:01:23.953Z,7.33
2022-11-26T22:03:55.690Z,7.37
2022-11-26T22:06:24.836Z,7.33
2022-11-26T22:08:53.629Z,7.22
2022-11-26T22:11:23.890Z,7.24
2022-11-26T22:13:52.195Z,7.27
2022-11-26T22:16:22.770Z,7.21
2022-11-26T22:18:52.248Z,7.14
2022-11-26T22:21:23.882Z,7.09
2022-11-26T22:23:52.519Z,7.15
2022-11-26T22:26:20.857Z,7.16
2022-11-26T22:28:49.605Z,7.18
2022-11-26T22:31:20.303Z,7.21
2022-11-26T22:33:48.700Z,7.20
2022-11-26T22:36:17.042Z,7.20
2022-11-26T22:38:47.498Z,7.15
2022-11-26T22:41:16.640Z,7.11
2022-11-26T22:43:45.108Z,7.03
2022-11-26T22:46:15.301Z,6.90
2022-11-26T22:48:44.134Z,6.85
2022-11-26T22:51:12.163Z,6.86
2022-11-26T22:53:40.202Z,6.80
2022-11-26T22:56:09.866Z,6.79
2022-11-26T22:58:38.004Z,6.81
2022-11-26T23:01:08.319Z,6.83
2022-11-26T23:03:37.854Z,6.79
2022-11-26T23:06:08.381Z,6.71
2022-11-26T23:08:36.432Z,6.75
2022-11-26T23:11:09.730Z,6.69
2022-11-26T23:13:37.567Z,6.66
2022-11-26T23:16:08.301Z,6.56
2022-11-26T23:18:37.139Z,6.64
2022-11-26T23:21:07.050Z,6.65
2022-11-26T23:23:35.854Z,6.66
2022-11-26T23:26:04.533Z,6.61
2022-11-26T23:28:35.261Z,6.46
2022-11-26T23:31:03.571Z,6.47
2022-11-26T23:33:31.649Z,6.49
2022-11-26T23:36:00.562Z,6.49
2022-11-26T23:38:28.676Z,6.47
2022-11-26T23:40:57.617Z,6.47
2022-11-26T23:43:26.474Z,6.38
2022-11-26T23:46:02.329Z,6.38
2022-11-26T23:48:30.249Z,6.36
2022-11-26T23:50:58.121Z,6.35
2022-11-26T23:53:27.062Z,6.32
2022-11-26T23:55:54.763Z,6.33
2022-11-26T23:58:23.180Z,6.30
